sensor_id;sensor_type;location;lat;lon;timestamp;pressure;altitude;pressure_sealevel;temperature;humidity
61039;BME280;46919;45.816;3.104;2023-04-28T00:02:10;97679.97;;;15.19;77.83
61039;BME280;46919;45.816;3.104;2023-04-28T00:04:36;97678.81;;;15.10;78.11
61039;BME280;46919;45.816;3.104;2023-04-28T00:07:02;97673.59;;;15.03;78.82
61039;BME280;46919;45.816;3.104;2023-04-28T00:09:27;97674.16;;;15.11;79.03
61039;BME280;46919;45.816;3.104;2023-04-28T00:11:53;97675.75;;;15.07;78.92
61039;BME280;46919;45.816;3.104;2023-04-28T00:14:18;97683.88;;;15.01;78.22
61039;BME280;46919;45.816;3.104;2023-04-28T00:16:44;97676.44;;;14.92;78.35
61039;BME280;46919;45.816;3.104;2023-04-28T00:19:09;97686.38;;;14.76;79.12
61039;BME280;46919;45.816;3.104;2023-04-28T00:21:34;97684.31;;;14.61;79.99
61039;BME280;46919;45.816;3.104;2023-04-28T00:24:00;97679.25;;;14.47;80.77
61039;BME280;46919;45.816;3.104;2023-04-28T00:26:25;97684.44;;;14.49;81.01
61039;BME280;46919;45.816;3.104;2023-04-28T00:28:51;97682.47;;;14.44;81.70
61039;BME280;46919;45.816;3.104;2023-04-28T00:31:16;97680.47;;;14.35;81.66
61039;BME280;46919;45.816;3.104;2023-04-28T00:33:42;97691.78;;;14.26;82.50
61039;BME280;46919;45.816;3.104;2023-04-28T00:36:08;97695.00;;;14.23;82.80
61039;BME280;46919;45.816;3.104;2023-04-28T00:38:34;97690.59;;;14.17;83.02
61039;BME280;46919;45.816;3.104;2023-04-28T00:40:59;97689.88;;;14.05;83.63
61039;BME280;46919;45.816;3.104;2023-04-28T00:43:25;97694.28;;;13.89;84.47
61039;BME280;46919;45.816;3.104;2023-04-28T00:45:51;97692.69;;;13.71;85.47
61039;BME280;46919;45.816;3.104;2023-04-28T00:48:17;97693.94;;;13.63;85.79
61039;BME280;46919;45.816;3.104;2023-04-28T00:50:44;97696.34;;;13.59;86.03
61039;BME280;46919;45.816;3.104;2023-04-28T00:53:10;97693.03;;;13.57;86.39
61039;BME280;46919;45.816;3.104;2023-04-28T00:55:36;97699.81;;;13.55;86.78
61039;BME280;46919;45.816;3.104;2023-04-28T00:58:06;97691.84;;;13.48;86.69
61039;BME280;46919;45.816;3.104;2023-04-28T01:00:32;97691.25;;;13.46;86.88
61039;BME280;46919;45.816;3.104;2023-04-28T01:02:57;97680.31;;;13.41;87.09
61039;BME280;46919;45.816;3.104;2023-04-28T01:05:27;97684.19;;;13.45;87.14
61039;BME280;46919;45.816;3.104;2023-04-28T01:07:53;97686.16;;;13.50;87.22
61039;BME280;46919;45.816;3.104;2023-04-28T01:10:19;97685.97;;;13.56;87.04
61039;BME280;46919;45.816;3.104;2023-04-28T01:12:44;97685.81;;;13.46;87.29
61039;BME280;46919;45.816;3.104;2023-04-28T01:15:16;97687.19;;;13.32;88.07
61039;BME280;46919;45.816;3.104;2023-04-28T01:17:42;97688.41;;;13.24;88.95
61039;BME280;46919;45.816;3.104;2023-04-28T01:20:08;97684.50;;;13.15;88.93
61039;BME280;46919;45.816;3.104;2023-04-28T01:22:34;97680.06;;;13.09;89.48
61039;BME280;46919;45.816;3.104;2023-04-28T01:24:59;97666.88;;;13.00;89.73
61039;BME280;46919;45.816;3.104;2023-04-28T01:27:25;97677.31;;;12.92;90.13
61039;BME280;46919;45.816;3.104;2023-04-28T01:29:50;97680.59;;;12.94;90.54
61039;BME280;46919;45.816;3.104;2023-04-28T01:32:16;97678.63;;;13.06;89.78
61039;BME280;46919;45.816;3.104;2023-04-28T01:34:41;97674.75;;;13.02;90.31
61039;BME280;46919;45.816;3.104;2023-04-28T01:37:06;97661.44;;;13.00;90.08
61039;BME280;46919;45.816;3.104;2023-04-28T01:39:32;97668.00;;;12.87;90.57
61039;BME280;46919;45.816;3.104;2023-04-28T01:41:59;97672.31;;;12.83;91.08
61039;BME280;46919;45.816;3.104;2023-04-28T01:44:24;97671.13;;;12.79;91.42
61039;BME280;46919;45.816;3.104;2023-04-28T01:46:50;97677.88;;;12.77;91.56
61039;BME280;46919;45.816;3.104;2023-04-28T01:49:15;97672.78;;;12.80;91.37
61039;BME280;46919;45.816;3.104;2023-04-28T01:51:40;97673.94;;;12.84;91.38
61039;BME280;46919;45.816;3.104;2023-04-28T01:54:07;97676.06;;;12.82;91.32
61039;BME280;46919;45.816;3.104;2023-04-28T01:56:32;97674.94;;;12.78;91.80
61039;BME280;46919;45.816;3.104;2023-04-28T01:58:57;97676.16;;;12.87;91.60
61039;BME280;46919;45.816;3.104;2023-04-28T02:01:23;97676.91;;;13.00;91.02
61039;BME280;46919;45.816;3.104;2023-04-28T02:03:48;97667.78;;;12.89;91.45
61039;BME280;46919;45.816;3.104;2023-04-28T02:06:14;97676.88;;;12.83;92.29
61039;BME280;46919;45.816;3.104;2023-04-28T02:08:40;97681.69;;;12.93;92.41
61039;BME280;46919;45.816;3.104;2023-04-28T02:11:05;97693.91;;;12.95;92.11
61039;BME280;46919;45.816;3.104;2023-04-28T02:13:30;97689.22;;;12.91;92.41
61039;BME280;46919;45.816;3.104;2023-04-28T02:15:59;97687.59;;;12.90;92.46
61039;BME280;46919;45.816;3.104;2023-04-28T02:18:25;97689.56;;;12.94;92.44
61039;BME280;46919;45.816;3.104;2023-04-28T02:20:50;97689.09;;;12.97;92.81
61039;BME280;46919;45.816;3.104;2023-04-28T02:23:16;97693.91;;;12.95;92.88
61039;BME280;46919;45.816;3.104;2023-04-28T02:25:41;97690.47;;;13.00;93.26
61039;BME280;46919;45.816;3.104;2023-04-28T02:28:07;97700.34;;;13.06;92.81
61039;BME280;46919;45.816;3.104;2023-04-28T02:30:32;97686.78;;;13.06;92.82
61039;BME280;46919;45.816;3.104;2023-04-28T02:32:57;97701.50;;;13.10;93.06
61039;BME280;46919;45.816;3.104;2023-04-28T02:35:23;97704.06;;;13.17;92.70
61039;BME280;46919;45.816;3.104;2023-04-28T02:37:48;97707.66;;;13.22;92.75
61039;BME280;46919;45.816;3.104;2023-04-28T02:40:14;97704.47;;;13.26;92.55
61039;BME280;46919;45.816;3.104;2023-04-28T02:42:40;97707.91;;;13.21;92.93
61039;BME280;46919;45.816;3.104;2023-04-28T02:45:05;97704.69;;;13.24;92.73
61039;BME280;46919;45.816;3.104;2023-04-28T02:47:31;97698.94;;;13.20;92.98
61039;BME280;46919;45.816;3.104;2023-04-28T02:49:56;97698.19;;;13.08;93.46
61039;BME280;46919;45.816;3.104;2023-04-28T02:52:22;97696.81;;;13.05;94.06
61039;BME280;46919;45.816;3.104;2023-04-28T02:54:47;97693.03;;;13.07;94.02
61039;BME280;46919;45.816;3.104;2023-04-28T02:57:13;97709.47;;;13.00;94.52
61039;BME280;46919;45.816;3.104;2023-04-28T02:59:38;97702.97;;;13.01;94.36
61039;BME280;46919;45.816;3.104;2023-04-28T03:02:04;97695.81;;;12.95;94.61
61039;BME280;46919;45.816;3.104;2023-04-28T03:04:29;97699.09;;;12.97;94.82
61039;BME280;46919;45.816;3.104;2023-04-28T03:06:55;97695.09;;;12.99;94.60
61039;BME280;46919;45.816;3.104;2023-04-28T03:09:20;97686.75;;;12.89;94.88
61039;BME280;46919;45.816;3.104;2023-04-28T03:11:46;97702.94;;;12.84;95.48
61039;BME280;46919;45.816;3.104;2023-04-28T03:14:11;97690.69;;;12.81;95.96
61039;BME280;46919;45.816;3.104;2023-04-28T03:16:37;97687.66;;;12.78;95.76
61039;BME280;46919;45.816;3.104;2023-04-28T03:19:02;97701.38;;;12.71;96.44
61039;BME280;46919;45.816;3.104;2023-04-28T03:21:28;97697.97;;;12.64;96.99
61039;BME280;46919;45.816;3.104;2023-04-28T03:23:54;97691.97;;;12.62;97.03
61039;BME280;46919;45.816;3.104;2023-04-28T03:26:19;97693.53;;;12.58;97.45
61039;BME280;46919;45.816;3.104;2023-04-28T03:28:45;97697.41;;;12.62;97.70
61039;BME280;46919;45.816;3.104;2023-04-28T03:31:11;97688.34;;;12.56;97.64
61039;BME280;46919;45.816;3.104;2023-04-28T03:33:36;97698.84;;;12.53;98.02
61039;BME280;46919;45.816;3.104;2023-04-28T03:36:02;97694.75;;;12.50;97.91
61039;BME280;46919;45.816;3.104;2023-04-28T03:38:28;97691.78;;;12.52;98.20
61039;BME280;46919;45.816;3.104;2023-04-28T03:40:53;97697.56;;;12.43;98.13
61039;BME280;46919;45.816;3.104;2023-04-28T03:43:18;97703.38;;;12.35;98.65
61039;BME280;46919;45.816;3.104;2023-04-28T03:45:44;97699.03;;;12.34;99.03
61039;BME280;46919;45.816;3.104;2023-04-28T03:48:10;97692.34;;;12.25;99.43
61039;BME280;46919;45.816;3.104;2023-04-28T03:50:35;97683.19;;;12.14;99.83
61039;BME280;46919;45.816;3.104;2023-04-28T03:53:00;97688.03;;;12.00;100.00
61039;BME280;46919;45.816;3.104;2023-04-28T03:55:26;97691.25;;;11.85;100.00
61039;BME280;46919;45.816;3.104;2023-04-28T03:57:53;97672.19;;;11.80;100.00
61039;BME280;46919;45.816;3.104;2023-04-28T04:00:18;97667.09;;;11.72;100.00
61039;BME280;46919;45.816;3.104;2023-04-28T04:02:44;97665.25;;;11.72;100.00
61039;BME280;46919;45.816;3.104;2023-04-28T04:05:09;97660.50;;;11.79;100.00
61039;BME280;46919;45.816;3.104;2023-04-28T04:07:35;97666.16;;;11.78;99.95
61039;BME280;46919;45.816;3.104;2023-04-28T04:10:00;97661.34;;;11.68;100.00
61039;BME280;46919;45.816;3.104;2023-04-28T04:12:26;97676.53;;;11.57;100.00
61039;BME280;46919;45.816;3.104;2023-04-28T04:14:51;97668.53;;;11.51;100.00
61039;BME280;46919;45.816;3.104;2023-04-28T04:17:17;97678.91;;;11.42;100.00
61039;BME280;46919;45.816;3.104;2023-04-28T04:19:42;97672.78;;;11.35;100.00
61039;BME280;46919;45.816;3.104;2023-04-28T04:22:07;97664.78;;;11.28;100.00
61039;BME280;46919;45.816;3.104;2023-04-28T04:24:33;97666.31;;;11.24;100.00
61039;BME280;46919;45.816;3.104;2023-04-28T04:26:58;97676.44;;;11.17;100.00
61039;BME280;46919;45.816;3.104;2023-04-28T04:29:24;97674.66;;;11.11;100.00
61039;BME280;46919;45.816;3.104;2023-04-28T04:31:49;97677.72;;;11.14;100.00
61039;BME280;46919;45.816;3.104;2023-04-28T04:34:15;97667.38;;;11.11;100.00
61039;BME280;46919;45.816;3.104;2023-04-28T04:36:40;97671.97;;;11.11;100.00
61039;BME280;46919;45.816;3.104;2023-04-28T04:39:06;97669.13;;;11.05;100.00
61039;BME280;46919;45.816;3.104;2023-04-28T04:41:32;97676.91;;;11.14;100.00
61039;BME280;46919;45.816;3.104;2023-04-28T04:43:57;97674.31;;;11.07;100.00
61039;BME280;46919;45.816;3.104;2023-04-28T04:46:22;97677.56;;;10.97;100.00
61039;BME280;46919;45.816;3.104;2023-04-28T04:48:48;97683.66;;;10.93;100.00
61039;BME280;46919;45.816;3.104;2023-04-28T04:51:13;97685.56;;;10.92;100.00
61039;BME280;46919;45.816;3.104;2023-04-28T04:53:39;97693.91;;;10.91;100.00
61039;BME280;46919;45.816;3.104;2023-04-28T04:56:04;97703.53;;;10.86;100.00
61039;BME280;46919;45.816;3.104;2023-04-28T04:58:30;97694.94;;;10.78;100.00
61039;BME280;46919;45.816;3.104;2023-04-28T05:00:55;97703.63;;;10.80;100.00
61039;BME280;46919;45.816;3.104;2023-04-28T05:03:21;97708.78;;;10.81;100.00
61039;BME280;46919;45.816;3.104;2023-04-28T05:05:46;97699.66;;;10.94;100.00
61039;BME280;46919;45.816;3.104;2023-04-28T05:08:12;97706.63;;;11.02;100.00
61039;BME280;46919;45.816;3.104;2023-04-28T05:10:38;97715.56;;;11.14;100.00
61039;BME280;46919;45.816;3.104;2023-04-28T05:13:03;97709.47;;;11.31;100.00
61039;BME280;46919;45.816;3.104;2023-04-28T05:15:29;97721.13;;;11.31;100.00
61039;BME280;46919;45.816;3.104;2023-04-28T05:17:55;97717.59;;;11.31;100.00
61039;BME280;46919;45.816;3.104;2023-04-28T05:20:21;97715.63;;;11.38;100.00
61039;BME280;46919;45.816;3.104;2023-04-28T05:22:47;97712.69;;;11.63;100.00
61039;BME280;46919;45.816;3.104;2023-04-28T05:25:12;97712.09;;;11.73;100.00
61039;BME280;46919;45.816;3.104;2023-04-28T05:27:37;97712.56;;;11.82;100.00
61039;BME280;46919;45.816;3.104;2023-04-28T05:30:08;97715.28;;;11.93;100.00
61039;BME280;46919;45.816;3.104;2023-04-28T05:32:35;97708.66;;;12.01;100.00
61039;BME280;46919;45.816;3.104;2023-04-28T05:35:01;97716.56;;;12.03;100.00
61039;BME280;46919;45.816;3.104;2023-04-28T05:37:26;97721.34;;;12.12;100.00
61039;BME280;46919;45.816;3.104;2023-04-28T05:39:52;97728.63;;;12.24;100.00
61039;BME280;46919;45.816;3.104;2023-04-28T05:42:17;97725.53;;;12.32;100.00
61039;BME280;46919;45.816;3.104;2023-04-28T05:44:43;97740.03;;;12.38;100.00
61039;BME280;46919;45.816;3.104;2023-04-28T05:47:08;97730.88;;;12.56;100.00
61039;BME280;46919;45.816;3.104;2023-04-28T05:49:34;97733.22;;;12.64;100.00
61039;BME280;46919;45.816;3.104;2023-04-28T05:51:59;97732.47;;;12.68;100.00
61039;BME280;46919;45.816;3.104;2023-04-28T05:54:25;97737.03;;;12.80;100.00
61039;BME280;46919;45.816;3.104;2023-04-28T05:56:51;97743.00;;;12.94;100.00
61039;BME280;46919;45.816;3.104;2023-04-28T05:59:17;97745.28;;;13.02;100.00
61039;BME280;46919;45.816;3.104;2023-04-28T06:01:42;97746.47;;;13.06;100.00
61039;BME280;46919;45.816;3.104;2023-04-28T06:04:08;97750.44;;;13.15;99.88
61039;BME280;46919;45.816;3.104;2023-04-28T06:06:33;97746.31;;;13.30;99.25
61039;BME280;46919;45.816;3.104;2023-04-28T06:08:58;97754.66;;;13.40;99.02
61039;BME280;46919;45.816;3.104;2023-04-28T06:11:24;97745.03;;;13.49;98.67
61039;BME280;46919;45.816;3.104;2023-04-28T06:13:49;97736.47;;;13.57;98.58
61039;BME280;46919;45.816;3.104;2023-04-28T06:16:15;97740.41;;;13.67;98.26
61039;BME280;46919;45.816;3.104;2023-04-28T06:18:41;97740.72;;;13.87;97.91
61039;BME280;46919;45.816;3.104;2023-04-28T06:21:07;97734.94;;;14.01;97.07
61039;BME280;46919;45.816;3.104;2023-04-28T06:23:32;97734.94;;;14.01;96.69
61039;BME280;46919;45.816;3.104;2023-04-28T06:25:58;97734.44;;;14.04;96.28
61039;BME280;46919;45.816;3.104;2023-04-28T06:28:23;97731.84;;;14.14;95.63
61039;BME280;46919;45.816;3.104;2023-04-28T06:30:48;97742.63;;;14.26;95.08
61039;BME280;46919;45.816;3.104;2023-04-28T06:33:14;97743.53;;;14.37;94.66
61039;BME280;46919;45.816;3.104;2023-04-28T06:35:39;97745.75;;;14.40;94.64
61039;BME280;46919;45.816;3.104;2023-04-28T06:38:05;97739.56;;;14.44;94.11
61039;BME280;46919;45.816;3.104;2023-04-28T06:40:31;97726.34;;;14.53;93.78
61039;BME280;46919;45.816;3.104;2023-04-28T06:42:56;97730.34;;;14.67;93.29
61039;BME280;46919;45.816;3.104;2023-04-28T06:45:22;97728.84;;;14.77;92.33
61039;BME280;46919;45.816;3.104;2023-04-28T06:47:47;97736.56;;;14.90;92.08
61039;BME280;46919;45.816;3.104;2023-04-28T06:50:12;97731.34;;;15.11;90.69
61039;BME280;46919;45.816;3.104;2023-04-28T06:52:38;97721.63;;;15.20;90.71
61039;BME280;46919;45.816;3.104;2023-04-28T06:55:07;97723.56;;;15.25;90.17
61039;BME280;46919;45.816;3.104;2023-04-28T06:57:36;97728.88;;;15.42;89.38
61039;BME280;46919;45.816;3.104;2023-04-28T07:00:02;97731.69;;;15.52;88.59
61039;BME280;46919;45.816;3.104;2023-04-28T07:02:28;97740.38;;;15.49;87.89
61039;BME280;46919;45.816;3.104;2023-04-28T07:04:54;97736.59;;;15.55;87.62
61039;BME280;46919;45.816;3.104;2023-04-28T07:07:19;97730.63;;;15.58;87.40
61039;BME280;46919;45.816;3.104;2023-04-28T07:09:45;97721.16;;;15.66;86.99
61039;BME280;46919;45.816;3.104;2023-04-28T07:12:10;97737.91;;;15.80;86.78
61039;BME280;46919;45.816;3.104;2023-04-28T07:14:36;97743.97;;;15.92;85.43
61039;BME280;46919;45.816;3.104;2023-04-28T07:17:01;97744.09;;;16.12;84.61
61039;BME280;46919;45.816;3.104;2023-04-28T07:19:27;97738.22;;;16.41;83.10
61039;BME280;46919;45.816;3.104;2023-04-28T07:21:52;97737.25;;;16.73;81.53
61039;BME280;46919;45.816;3.104;2023-04-28T07:24:18;97738.44;;;17.03;80.28
61039;BME280;46919;45.816;3.104;2023-04-28T07:26:43;97726.72;;;17.23;79.89
61039;BME280;46919;45.816;3.104;2023-04-28T07:29:08;97735.75;;;17.29;79.46
61039;BME280;46919;45.816;3.104;2023-04-28T07:31:37;97731.38;;;17.33;79.23
61039;BME280;46919;45.816;3.104;2023-04-28T07:34:03;97731.09;;;17.34;79.25
61039;BME280;46919;45.816;3.104;2023-04-28T07:36:28;97740.13;;;17.40;78.98
61039;BME280;46919;45.816;3.104;2023-04-28T07:38:53;97734.94;;;17.44;77.83
61039;BME280;46919;45.816;3.104;2023-04-28T07:41:19;97743.38;;;17.52;77.37
61039;BME280;46919;45.816;3.104;2023-04-28T07:43:44;97741.19;;;17.70;76.67
61039;BME280;46919;45.816;3.104;2023-04-28T07:46:11;97744.44;;;17.87;75.92
61039;BME280;46919;45.816;3.104;2023-04-28T07:48:37;97743.38;;;17.99;74.92
61039;BME280;46919;45.816;3.104;2023-04-28T07:51:02;97737.91;;;18.04;74.05
61039;BME280;46919;45.816;3.104;2023-04-28T07:53:28;97738.13;;;18.13;73.89
61039;BME280;46919;45.816;3.104;2023-04-28T07:55:53;97735.38;;;18.28;72.22
61039;BME280;46919;45.816;3.104;2023-04-28T07:58:19;97732.88;;;18.37;71.54
61039;BME280;46919;45.816;3.104;2023-04-28T08:00:45;97742.41;;;18.50;70.82
61039;BME280;46919;45.816;3.104;2023-04-28T08:03:10;97740.41;;;18.65;70.42
61039;BME280;46919;45.816;3.104;2023-04-28T08:05:37;97732.09;;;18.81;69.64
61039;BME280;46919;45.816;3.104;2023-04-28T08:08:03;97728.56;;;18.86;69.64
61039;BME280;46919;45.816;3.104;2023-04-28T08:10:28;97728.06;;;18.68;69.56
61039;BME280;46919;45.816;3.104;2023-04-28T08:12:54;97723.72;;;18.67;69.47
61039;BME280;46919;45.816;3.104;2023-04-28T08:15:19;97723.34;;;18.84;68.49
61039;BME280;46919;45.816;3.104;2023-04-28T08:17:45;97724.69;;;18.97;67.46
61039;BME280;46919;45.816;3.104;2023-04-28T08:20:11;97727.63;;;19.06;66.98
61039;BME280;46919;45.816;3.104;2023-04-28T08:22:39;97718.78;;;19.14;66.67
61039;BME280;46919;45.816;3.104;2023-04-28T08:25:04;97732.44;;;19.24;66.75
61039;BME280;46919;45.816;3.104;2023-04-28T08:27:30;97729.09;;;19.32;66.33
61039;BME280;46919;45.816;3.104;2023-04-28T08:29:55;97724.28;;;19.48;65.38
61039;BME280;46919;45.816;3.104;2023-04-28T08:32:21;97723.88;;;19.65;65.10
61039;BME280;46919;45.816;3.104;2023-04-28T08:34:46;97721.38;;;19.98;64.36
61039;BME280;46919;45.816;3.104;2023-04-28T08:37:12;97716.72;;;20.23;63.88
61039;BME280;46919;45.816;3.104;2023-04-28T08:39:37;97716.00;;;20.36;63.40
61039;BME280;46919;45.816;3.104;2023-04-28T08:42:03;97719.69;;;20.51;63.23
61039;BME280;46919;45.816;3.104;2023-04-28T08:44:35;97719.53;;;20.66;62.35
61039;BME280;46919;45.816;3.104;2023-04-28T08:47:05;97709.09;;;20.68;62.04
61039;BME280;46919;45.816;3.104;2023-04-28T08:49:34;97702.63;;;20.97;61.29
61039;BME280;46919;45.816;3.104;2023-04-28T08:52:09;97697.69;;;21.32;60.85
61039;BME280;46919;45.816;3.104;2023-04-28T08:54:35;97711.25;;;21.42;60.12
61039;BME280;46919;45.816;3.104;2023-04-28T08:57:02;97713.19;;;21.42;60.25
61039;BME280;46919;45.816;3.104;2023-04-28T08:59:29;97696.44;;;21.24;60.46
61039;BME280;46919;45.816;3.104;2023-04-28T09:01:55;97700.00;;;21.06;60.47
61039;BME280;46919;45.816;3.104;2023-04-28T09:04:21;97692.13;;;21.18;60.25
61039;BME280;46919;45.816;3.104;2023-04-28T09:06:46;97701.31;;;21.46;59.81
61039;BME280;46919;45.816;3.104;2023-04-28T09:09:26;97693.50;;;21.53;58.75
61039;BME280;46919;45.816;3.104;2023-04-28T09:11:57;97688.13;;;21.62;59.04
61039;BME280;46919;45.816;3.104;2023-04-28T09:14:27;97687.34;;;21.62;58.76
61039;BME280;46919;45.816;3.104;2023-04-28T09:16:53;97690.63;;;21.78;57.88
61039;BME280;46919;45.816;3.104;2023-04-28T09:19:19;97687.56;;;21.79;57.98
61039;BME280;46919;45.816;3.104;2023-04-28T09:21:55;97686.16;;;21.96;57.96
61039;BME280;46919;45.816;3.104;2023-04-28T09:24:39;97680.66;;;22.10;57.02
61039;BME280;46919;45.816;3.104;2023-04-28T09:27:08;97676.28;;;22.08;57.12
61039;BME280;46919;45.816;3.104;2023-04-28T09:29:52;97672.59;;;21.99;56.95
61039;BME280;46919;45.816;3.104;2023-04-28T09:32:20;97674.84;;;21.97;56.87
61039;BME280;46919;45.816;3.104;2023-04-28T09:34:47;97672.09;;;21.97;56.62
61039;BME280;46919;45.816;3.104;2023-04-28T09:37:20;97670.88;;;22.03;55.67
61039;BME280;46919;45.816;3.104;2023-04-28T09:39:48;97675.25;;;22.18;55.01
61039;BME280;46919;45.816;3.104;2023-04-28T09:42:34;97672.72;;;22.36;54.83
61039;BME280;46919;45.816;3.104;2023-04-28T09:45:01;97668.41;;;22.57;54.18
61039;BME280;46919;45.816;3.104;2023-04-28T09:47:28;97664.00;;;22.70;54.11
61039;BME280;46919;45.816;3.104;2023-04-28T09:49:55;97650.28;;;22.79;53.88
61039;BME280;46919;45.816;3.104;2023-04-28T09:52:21;97648.34;;;22.93;53.89
61039;BME280;46919;45.816;3.104;2023-04-28T09:54:52;97648.81;;;22.95;53.60
61039;BME280;46919;45.816;3.104;2023-04-28T09:57:18;97652.38;;;23.10;53.60
61039;BME280;46919;45.816;3.104;2023-04-28T09:59:46;97651.59;;;23.41;53.85
61039;BME280;46919;45.816;3.104;2023-04-28T10:02:14;97635.03;;;23.63;53.35
61039;BME280;46919;45.816;3.104;2023-04-28T10:04:44;97647.59;;;23.78;53.39
61039;BME280;46919;45.816;3.104;2023-04-28T10:07:13;97631.94;;;23.96;52.16
61039;BME280;46919;45.816;3.104;2023-04-28T10:09:40;97634.28;;;24.12;51.55
61039;BME280;46919;45.816;3.104;2023-04-28T10:12:09;97626.69;;;24.26;50.82
61039;BME280;46919;45.816;3.104;2023-04-28T10:14:35;97634.25;;;24.61;50.08
61039;BME280;46919;45.816;3.104;2023-04-28T10:17:02;97620.44;;;24.69;50.15
61039;BME280;46919;45.816;3.104;2023-04-28T10:19:29;97607.44;;;24.70;49.38
61039;BME280;46919;45.816;3.104;2023-04-28T10:27:44;97608.19;;;24.35;50.18
61039;BME280;46919;45.816;3.104;2023-04-28T10:30:19;97604.47;;;24.49;48.96
61039;BME280;46919;45.816;3.104;2023-04-28T10:32:45;97613.25;;;24.51;50.04
61039;BME280;46919;45.816;3.104;2023-04-28T10:40:37;97598.66;;;24.94;48.75
61039;BME280;46919;45.816;3.104;2023-04-28T10:43:04;97589.03;;;25.09;48.11
61039;BME280;46919;45.816;3.104;2023-04-28T10:56:22;97595.03;;;25.20;47.43
61039;BME280;46919;45.816;3.104;2023-04-28T10:58:59;97592.78;;;25.13;47.68
61039;BME280;46919;45.816;3.104;2023-04-28T11:01:26;97578.63;;;25.32;47.35
61039;BME280;46919;45.816;3.104;2023-04-28T11:06:44;97575.94;;;25.62;46.38
61039;BME280;46919;45.816;3.104;2023-04-28T11:11:41;97576.19;;;25.78;46.39
61039;BME280;46919;45.816;3.104;2023-04-28T11:19:20;97548.50;;;25.78;45.79
61039;BME280;46919;45.816;3.104;2023-04-28T11:21:47;97555.88;;;26.03;45.63
61039;BME280;46919;45.816;3.104;2023-04-28T11:24:13;97549.00;;;26.10;45.65
61039;BME280;46919;45.816;3.104;2023-04-28T11:26:39;97542.41;;;26.23;45.49
61039;BME280;46919;45.816;3.104;2023-04-28T11:29:05;97546.25;;;26.31;45.19
61039;BME280;46919;45.816;3.104;2023-04-28T11:31:30;97549.56;;;26.45;44.37
61039;BME280;46919;45.816;3.104;2023-04-28T11:38:48;97540.13;;;26.46;44.84
61039;BME280;46919;45.816;3.104;2023-04-28T11:41:13;97536.97;;;26.90;44.80
61039;BME280;46919;45.816;3.104;2023-04-28T11:43:39;97529.28;;;26.96;44.61
61039;BME280;46919;45.816;3.104;2023-04-28T11:46:06;97537.41;;;26.80;45.07
61039;BME280;46919;45.816;3.104;2023-04-28T11:48:32;97542.28;;;26.40;45.61
61039;BME280;46919;45.816;3.104;2023-04-28T11:50:57;97528.50;;;26.11;45.37
61039;BME280;46919;45.816;3.104;2023-04-28T11:53:44;97529.25;;;25.90;45.46
61039;BME280;46919;45.816;3.104;2023-04-28T11:56:10;97528.13;;;25.82;45.61
61039;BME280;46919;45.816;3.104;2023-04-28T11:58:37;97527.72;;;25.63;45.22
61039;BME280;46919;45.816;3.104;2023-04-28T12:01:10;97533.91;;;25.60;45.31
61039;BME280;46919;45.816;3.104;2023-04-28T12:03:45;97533.59;;;25.61;45.00
61039;BME280;46919;45.816;3.104;2023-04-28T12:06:11;97525.59;;;25.68;45.98
61039;BME280;46919;45.816;3.104;2023-04-28T12:08:41;97520.97;;;25.81;46.16
61039;BME280;46919;45.816;3.104;2023-04-28T12:11:11;97522.41;;;25.88;45.58
61039;BME280;46919;45.816;3.104;2023-04-28T12:13:40;97521.84;;;26.03;46.72
61039;BME280;46919;45.816;3.104;2023-04-28T12:16:06;97518.22;;;26.11;45.72
61039;BME280;46919;45.816;3.104;2023-04-28T12:18:33;97518.69;;;26.13;45.29
61039;BME280;46919;45.816;3.104;2023-04-28T12:20:59;97525.97;;;26.18;45.21
61039;BME280;46919;45.816;3.104;2023-04-28T12:23:32;97523.16;;;26.27;45.23
61039;BME280;46919;45.816;3.104;2023-04-28T12:25:59;97527.88;;;26.26;45.15
61039;BME280;46919;45.816;3.104;2023-04-28T12:28:38;97517.00;;;26.21;45.15
61039;BME280;46919;45.816;3.104;2023-04-28T12:31:05;97527.28;;;26.20;45.54
61039;BME280;46919;45.816;3.104;2023-04-28T12:33:31;97524.50;;;26.20;44.73
61039;BME280;46919;45.816;3.104;2023-04-28T12:36:02;97527.13;;;26.17;46.03
61039;BME280;46919;45.816;3.104;2023-04-28T12:38:28;97527.06;;;26.26;45.80
61039;BME280;46919;45.816;3.104;2023-04-28T12:40:54;97521.75;;;26.20;45.31
61039;BME280;46919;45.816;3.104;2023-04-28T12:43:19;97517.81;;;26.43;45.42
61039;BME280;46919;45.816;3.104;2023-04-28T12:45:50;97511.53;;;26.75;44.50
61039;BME280;46919;45.816;3.104;2023-04-28T12:48:17;97512.88;;;26.90;44.11
61039;BME280;46919;45.816;3.104;2023-04-28T12:50:42;97507.31;;;26.90;43.79
61039;BME280;46919;45.816;3.104;2023-04-28T12:53:08;97512.41;;;26.88;43.46
61039;BME280;46919;45.816;3.104;2023-04-28T12:55:33;97502.41;;;26.75;43.40
61039;BME280;46919;45.816;3.104;2023-04-28T12:57:58;97497.81;;;26.91;43.32
61039;BME280;46919;45.816;3.104;2023-04-28T13:00:24;97501.53;;;26.96;43.14
61039;BME280;46919;45.816;3.104;2023-04-28T13:02:50;97500.22;;;27.14;42.75
61039;BME280;46919;45.816;3.104;2023-04-28T13:05:17;97506.66;;;27.06;42.51
61039;BME280;46919;45.816;3.104;2023-04-28T13:07:44;97500.75;;;27.41;42.81
61039;BME280;46919;45.816;3.104;2023-04-28T13:10:09;97502.38;;;27.79;41.75
61039;BME280;46919;45.816;3.104;2023-04-28T13:12:35;97498.19;;;27.85;40.85
61039;BME280;46919;45.816;3.104;2023-04-28T13:15:01;97490.81;;;28.01;41.45
61039;BME280;46919;45.816;3.104;2023-04-28T13:17:27;97493.94;;;28.41;41.16
61039;BME280;46919;45.816;3.104;2023-04-28T13:19:52;97477.06;;;28.74;40.87
61039;BME280;46919;45.816;3.104;2023-04-28T13:22:18;97467.88;;;29.02;40.44
61039;BME280;46919;45.816;3.104;2023-04-28T13:24:46;97457.38;;;28.95;38.65
61039;BME280;46919;45.816;3.104;2023-04-28T13:27:11;97466.22;;;28.57;38.73
61039;BME280;46919;45.816;3.104;2023-04-28T13:29:36;97474.38;;;28.78;37.46
61039;BME280;46919;45.816;3.104;2023-04-28T13:32:02;97478.41;;;28.80;36.29